Time;durP1;ratioP1;P1;durP2;ratioP2;P2;SDS_P1;SDS_P2;PMS_P1;PMS_P2;Temp;Humidity;BMP_temperature;BMP_pressure;BME280_temperature;BME280_humidity;BME280_pressure;Samples;Min_cycle;Max_cycle;Signal;HPM_P1;HPM_P2
2021/08/30 00:00:37;;;;;;;6.40;4.47;;;27.60;99.90;;;;;;4160852;28;20045;-64
2021/08/30 00:02:43;;;;;;;8.75;4.32;;;27.60;99.90;;;;;;4153153;28;20038;-64
2021/08/30 00:04:48;;;;;;;7.95;4.18;;;27.70;99.90;;;;;;4157820;28;20069;-64
2021/08/30 00:06:52;;;;;;;7.93;4.35;;;27.60;99.90;;;;;;4159881;28;20128;-62
2021/08/30 00:08:58;;;;;;;7.38;4.18;;;27.80;99.90;;;;;;4160394;28;20496;-63
2021/08/30 00:11:03;;;;;;;6.32;3.83;;;27.80;99.90;;;;;;4158527;28;20053;-63
2021/08/30 00:13:07;;;;;;;6.70;3.78;;;27.80;99.90;;;;;;4152812;28;20045;-63
2021/08/30 00:15:13;;;;;;;6.53;4.80;;;28.00;99.90;;;;;;4156859;28;20099;-63
2021/08/30 00:17:19;;;;;;;8.38;4.22;;;27.80;99.90;;;;;;4160337;28;20161;-63
2021/08/30 00:19:24;;;;;;;7.68;4.93;;;27.80;99.90;;;;;;4160382;28;20527;-63
2021/08/30 00:21:29;;;;;;;7.28;4.47;;;27.90;99.90;;;;;;4160189;28;20100;-63
2021/08/30 00:23:33;;;;;;;6.93;4.32;;;28.00;99.90;;;;;;4148898;28;20135;-63
2021/08/30 00:25:37;;;;;;;8.95;4.00;;;28.10;99.90;;;;;;4160170;28;20049;-63
2021/08/30 00:27:42;;;;;;;6.22;3.80;;;28.20;99.90;;;;;;4160359;28;20034;-63
2021/08/30 00:29:47;;;;;;;7.93;3.83;;;28.20;99.90;;;;;;4159983;28;20500;-64
2021/08/30 00:31:55;;;;;;;5.70;3.67;;;28.30;99.90;;;;;;4156242;28;20496;-63
2021/08/30 00:34:00;;;;;;;9.23;4.40;;;28.30;99.90;;;;;;4160618;28;20041;-63
2021/08/30 00:36:05;;;;;;;8.15;4.30;;;28.00;99.90;;;;;;4165171;28;20116;-64
2021/08/30 00:38:09;;;;;;;6.80;3.72;;;28.00;99.90;;;;;;4160266;28;20048;-63
2021/08/30 00:40:14;;;;;;;5.65;3.70;;;28.10;99.90;;;;;;4160248;28;20091;-63
2021/08/30 00:42:21;;;;;;;5.38;3.50;;;28.20;99.90;;;;;;4155505;28;20060;-63
2021/08/30 00:44:27;;;;;;;6.32;3.70;;;28.30;99.90;;;;;;4153101;28;20041;-64
2021/08/30 00:46:31;;;;;;;5.28;3.40;;;28.40;99.90;;;;;;4160288;28;20517;-64
2021/08/30 00:48:36;;;;;;;4.55;3.25;;;28.50;99.90;;;;;;4161294;28;20053;-64
2021/08/30 00:50:40;;;;;;;6.10;3.13;;;28.30;99.90;;;;;;4156959;28;20076;-63
2021/08/30 00:52:45;;;;;;;5.13;3.38;;;28.40;99.90;;;;;;4152260;28;20046;-63
2021/08/30 00:54:50;;;;;;;6.35;3.78;;;28.40;99.90;;;;;;4157720;28;20133;-63
2021/08/30 00:56:54;;;;;;;8.63;3.33;;;28.50;99.90;;;;;;4165575;28;20140;-65
2021/08/30 00:58:59;;;;;;;5.10;3.70;;;28.60;99.90;;;;;;4168377;28;20037;-65
2021/08/30 01:01:04;;;;;;;4.50;3.30;;;28.60;99.90;;;;;;4165338;28;20049;-65
2021/08/30 01:03:10;;;;;;;3.47;2.88;;;28.60;99.90;;;;;;4155919;28;20087;-66
2021/08/30 01:05:16;;;;;;;11.23;4.60;;;28.50;99.90;;;;;;4159137;28;20095;-65
2021/08/30 01:07:54;;;;;;;15.18;6.05;;;28.50;99.90;;;;;;4168306;28;20419;-66
2021/08/30 01:10:13;;;;;;;9.15;4.40;;;28.30;99.90;;;;;;4166349;28;20045;-65
2021/08/30 01:12:38;;;;;;;7.50;3.78;;;28.50;99.90;;;;;;4160233;28;20040;-65
2021/08/30 01:15:04;;;;;;;6.00;3.38;;;28.60;99.90;;;;;;4158475;28;20042;-65
2021/08/30 01:17:08;;;;;;;7.18;3.88;;;28.80;99.90;;;;;;4163219;28;20132;-65
2021/08/30 01:19:17;;;;;;;4.15;3.10;;;29.00;99.90;;;;;;4164328;28;20071;-65
2021/08/30 01:21:27;;;;;;;7.63;3.97;;;29.00;99.90;;;;;;4169904;28;20139;-65
2021/08/30 01:23:34;;;;;;;5.35;3.35;;;29.10;99.90;;;;;;4155542;28;20041;-65
2021/08/30 01:25:38;;;;;;;3.47;2.80;;;29.30;99.90;;;;;;4159450;28;20037;-65
2021/08/30 01:27:43;;;;;;;4.63;3.10;;;29.20;99.90;;;;;;4164989;28;20037;-65
2021/08/30 01:30:03;;;;;;;5.55;3.60;;;29.10;99.90;;;;;;4169346;28;20064;-64
2021/08/30 01:32:39;;;;;;;6.20;2.83;;;29.10;99.90;;;;;;4158161;28;20133;-65
2021/08/30 01:34:44;;;;;;;3.35;2.50;;;29.20;99.90;;;;;;4155436;28;20511;-65
2021/08/30 01:36:50;;;;;;;6.35;2.83;;;29.40;99.90;;;;;;4161247;28;20049;-65
2021/08/30 01:38:59;;;;;;;3.83;2.40;;;29.40;99.90;;;;;;4158363;28;20053;-65
2021/08/30 01:41:07;;;;;;;3.15;2.33;;;29.40;99.90;;;;;;4161507;28;20528;-66
2021/08/30 01:43:14;;;;;;;3.28;2.33;;;29.50;99.90;;;;;;4135951;28;20476;-66
2021/08/30 01:45:21;;;;;;;3.13;2.22;;;29.60;99.90;;;;;;4147091;28;20789;-66
2021/08/30 01:47:25;;;;;;;3.65;2.20;;;29.80;99.90;;;;;;4159208;28;20083;-66
2021/08/30 01:49:30;;;;;;;6.30;2.08;;;29.70;99.90;;;;;;4158206;28;20037;-66
2021/08/30 01:51:35;;;;;;;3.50;2.05;;;29.70;99.90;;;;;;4158460;28;20739;-66
2021/08/30 01:53:40;;;;;;;3.75;2.50;;;29.70;99.90;;;;;;4146587;28;20044;-66
2021/08/30 01:55:49;;;;;;;3.30;2.45;;;29.80;99.90;;;;;;4156642;28;20069;-66
2021/08/30 02:02:21;;;;;;;2.88;1.98;;;30.00;99.90;;;;;;4156269;28;20074;-65
2021/08/30 02:04:28;;;;;;;2.90;1.80;;;30.00;99.90;;;;;;4156220;28;20131;-65
2021/08/30 02:06:33;;;;;;;3.05;2.00;;;30.00;99.90;;;;;;4161706;28;20168;-65
2021/08/30 02:08:38;;;;;;;6.15;2.45;;;30.00;99.90;;;;;;4163163;28;20107;-66
2021/08/30 02:10:45;;;;;;;2.15;1.63;;;30.10;99.90;;;;;;4166001;28;20053;-65
2021/08/30 02:12:49;;;;;;;2.80;1.60;;;30.10;99.90;;;;;;4154284;28;21263;-66
2021/08/30 02:14:54;;;;;;;2.95;1.65;;;30.20;99.90;;;;;;4167307;28;20053;-66
2021/08/30 02:17:00;;;;;;;3.53;1.80;;;30.30;99.90;;;;;;4161905;28;20073;-66
2021/08/30 02:19:28;;;;;;;2.67;1.85;;;30.40;99.90;;;;;;4166351;28;20165;-66
2021/08/30 02:21:43;;;;;;;2.92;1.52;;;30.50;99.90;;;;;;4167404;28;20609;-66
2021/08/30 02:24:21;;;;;;;2.92;1.85;;;30.60;99.90;;;;;;4162446;28;20045;-67
2021/08/30 02:26:27;;;;;;;3.05;1.80;;;30.60;99.90;;;;;;4157406;28;20566;-65
2021/08/30 02:28:32;;;;;;;4.03;1.60;;;30.60;99.90;;;;;;4160906;28;20053;-67
2021/08/30 02:30:37;;;;;;;3.38;1.58;;;30.70;99.90;;;;;;4140587;28;20454;-67
2021/08/30 02:32:43;;;;;;;2.92;1.60;;;30.80;99.90;;;;;;4158839;28;20074;-67
2021/08/30 02:34:54;;;;;;;2.50;1.58;;;30.60;99.90;;;;;;4159293;28;20570;-65
2021/08/30 02:36:59;;;;;;;4.40;1.88;;;30.60;99.90;;;;;;4166255;28;20348;-65
2021/08/30 02:39:03;;;;;;;3.22;1.58;;;30.50;99.90;;;;;;4166241;28;20052;-65
2021/08/30 02:41:08;;;;;;;2.97;1.67;;;30.60;99.90;;;;;;4163827;28;20128;-65
2021/08/30 02:43:13;;;;;;;4.25;1.67;;;30.70;99.90;;;;;;4165326;28;20041;-65
2021/08/30 02:45:17;;;;;;;6.90;2.08;;;31.00;99.90;;;;;;4165928;28;20474;-65
2021/08/30 02:47:21;;;;;;;5.35;2.17;;;31.20;99.40;;;;;;4165897;28;20041;-66
2021/08/30 02:49:25;;;;;;;2.22;1.40;;;31.30;99.00;;;;;;4161700;28;20467;-66
2021/08/30 02:51:30;;;;;;;2.60;1.17;;;31.30;99.00;;;;;;4159688;28;20049;-66
2021/08/30 02:53:34;;;;;;;1.70;1.40;;;31.30;98.90;;;;;;4158661;28;20403;-66
2021/08/30 02:55:39;;;;;;;2.97;1.60;;;31.20;99.50;;;;;;4157517;28;20524;-67
2021/08/30 02:57:43;;;;;;;5.03;1.80;;;30.90;99.50;;;;;;4163054;28;20064;-66
2021/08/30 02:59:51;;;;;;;1.85;1.38;;;30.90;99.60;;;;;;4150449;28;20053;-67
2021/08/30 03:01:56;;;;;;;1.65;1.10;;;31.00;98.30;;;;;;4155915;28;20033;-66
2021/08/30 03:04:00;;;;;;;1.40;1.15;;;30.90;97.00;;;;;;4159022;28;20045;-67
2021/08/30 03:06:06;;;;;;;2.58;1.25;;;31.10;96.60;;;;;;4157140;28;20049;-66
2021/08/30 03:08:12;;;;;;;2.25;1.42;;;31.20;96.60;;;;;;4160698;28;20098;-66
2021/08/30 03:10:17;;;;;;;2.10;1.30;;;31.40;96.60;;;;;;4161284;28;20522;-66
2021/08/30 03:12:23;;;;;;;2.15;1.13;;;31.70;96.50;;;;;;4159854;28;20053;-67
2021/08/30 03:14:27;;;;;;;2.50;1.40;;;31.80;96.30;;;;;;4157232;28;20041;-67
2021/08/30 03:16:35;;;;;;;3.22;1.27;;;31.70;95.70;;;;;;4154766;28;20068;-67
2021/08/30 03:18:40;;;;;;;2.72;1.08;;;31.80;96.10;;;;;;4158773;28;20057;-66
2021/08/30 03:20:45;;;;;;;2.55;1.52;;;31.90;96.70;;;;;;4139979;28;20140;-67
2021/08/30 03:22:50;;;;;;;1.83;1.20;;;32.10;96.60;;;;;;4157526;28;20046;-68
2021/08/30 03:24:55;;;;;;;4.50;1.40;;;32.10;95.90;;;;;;4158766;28;20539;-65
2021/08/30 03:27:01;;;;;;;3.00;1.10;;;32.00;96.00;;;;;;4156149;28;20420;-66
2021/08/30 03:29:07;;;;;;;4.63;1.25;;;32.00;95.70;;;;;;4141339;28;20544;-66
2021/08/30 03:31:11;;;;;;;1.23;0.80;;;32.10;95.80;;;;;;4156875;28;20148;-66
2021/08/30 03:33:16;;;;;;;1.85;1.10;;;32.10;94.70;;;;;;4159325;28;20475;-66
2021/08/30 03:35:22;;;;;;;2.10;1.10;;;32.10;94.50;;;;;;4157240;28;20037;-66
2021/08/30 03:37:26;;;;;;;2.97;1.10;;;32.10;95.10;;;;;;4140997;28;20099;-66
2021/08/30 03:39:31;;;;;;;3.30;1.15;;;32.00;95.60;;;;;;4157192;28;20041;-66
2021/08/30 03:41:36;;;;;;;2.28;1.30;;;32.00;95.50;;;;;;4157114;28;20060;-66
2021/08/30 03:43:41;;;;;;;1.83;1.10;;;32.00;94.40;;;;;;4139566;28;20038;-66
2021/08/30 03:45:48;;;;;;;2.33;1.40;;;31.80;94.90;;;;;;4157256;28;20480;-66
2021/08/30 03:47:56;;;;;;;2.70;1.40;;;31.60;95.10;;;;;;4157187;28;20049;-66
2021/08/30 03:50:04;;;;;;;1.48;1.00;;;31.60;95.40;;;;;;4159343;28;20049;-66
2021/08/30 03:52:09;;;;;;;1.73;1.08;;;31.70;95.70;;;;;;4137682;28;20114;-66
2021/08/30 03:54:13;;;;;;;2.30;1.13;;;31.70;95.70;;;;;;4157386;28;20508;-66
2021/08/30 03:56:18;;;;;;;1.75;1.13;;;31.90;95.30;;;;;;4159328;28;20076;-65
2021/08/30 03:58:26;;;;;;;2.17;1.10;;;32.10;95.20;;;;;;4137912;28;20122;-66
2021/08/30 04:00:31;;;;;;;2.35;1.10;;;32.40;94.90;;;;;;4155731;28;20041;-66
2021/08/30 04:02:37;;;;;;;2.30;1.33;;;32.50;94.60;;;;;;4141474;28;20100;-66
2021/08/30 04:04:42;;;;;;;2.40;1.42;;;32.60;94.10;;;;;;4159737;28;20417;-65
2021/08/30 04:06:47;;;;;;;1.35;0.95;;;32.70;93.80;;;;;;4162370;28;20038;-65
2021/08/30 04:08:51;;;;;;;2.85;1.40;;;32.50;93.80;;;;;;4162511;28;20047;-65
2021/08/30 04:10:57;;;;;;;2.20;1.40;;;32.60;93.90;;;;;;4166143;28;20317;-66
2021/08/30 04:13:03;;;;;;;2.97;1.55;;;32.40;94.30;;;;;;4155752;28;20470;-64
2021/08/30 04:15:08;;;;;;;1.98;1.40;;;32.60;94.50;;;;;;4158939;28;20072;-64
2021/08/30 04:17:13;;;;;;;2.03;1.25;;;32.80;94.00;;;;;;4160494;28;20050;-65
2021/08/30 04:19:17;;;;;;;2.53;1.20;;;32.80;92.80;;;;;;4160095;28;20041;-65
2021/08/30 04:21:22;;;;;;;1.33;1.00;;;32.80;92.90;;;;;;4157514;28;20157;-65
2021/08/30 04:23:26;;;;;;;1.80;1.05;;;32.80;92.70;;;;;;4161869;28;20045;-65
2021/08/30 04:25:31;;;;;;;1.60;1.05;;;33.00;93.10;;;;;;4161576;28;20052;-64
2021/08/30 04:27:36;;;;;;;2.63;1.38;;;33.00;92.80;;;;;;4160253;28;20469;-64
2021/08/30 04:29:40;;;;;;;1.42;1.13;;;33.00;92.80;;;;;;4159791;28;20200;-65
2021/08/30 04:31:45;;;;;;;3.10;1.23;;;33.10;93.00;;;;;;4161282;28;20160;-65
2021/08/30 04:33:49;;;;;;;1.85;1.10;;;33.10;93.10;;;;;;4159978;28;20054;-65
2021/08/30 04:35:54;;;;;;;2.78;1.10;;;33.00;92.60;;;;;;4161016;28;20056;-64
2021/08/30 04:37:58;;;;;;;1.92;0.98;;;32.80;92.80;;;;;;4159857;28;20338;-64
2021/08/30 04:40:04;;;;;;;2.80;1.23;;;32.80;92.90;;;;;;4161580;28;20045;-64
2021/08/30 04:42:09;;;;;;;2.00;1.15;;;32.80;92.60;;;;;;4162482;28;20048;-64
2021/08/30 04:44:13;;;;;;;1.55;1.00;;;33.00;92.70;;;;;;4160992;28;20076;-63
2021/08/30 04:46:18;;;;;;;1.42;0.93;;;33.20;92.60;;;;;;4163714;28;20139;-66
2021/08/30 04:48:23;;;;;;;2.47;1.30;;;33.30;92.20;;;;;;4174225;28;20048;-66
2021/08/30 04:50:28;;;;;;;2.95;1.20;;;33.30;92.00;;;;;;4166046;28;20041;-66
2021/08/30 04:52:39;;;;;;;3.70;1.38;;;33.30;92.20;;;;;;4162339;28;20562;-66
2021/08/30 04:54:43;;;;;;;3.17;1.40;;;33.50;91.90;;;;;;4165796;28;20438;-65
2021/08/30 04:56:48;;;;;;;3.10;1.38;;;33.50;91.30;;;;;;4157413;28;20057;-64
2021/08/30 04:58:53;;;;;;;1.80;1.20;;;33.60;91.00;;;;;;4169557;28;20096;-65
2021/08/30 05:00:58;;;;;;;2.35;1.38;;;33.60;91.10;;;;;;4159399;28;20088;-65
2021/08/30 05:03:02;;;;;;;3.72;0.95;;;33.70;91.20;;;;;;4167403;28;20503;-65
2021/08/30 05:05:08;;;;;;;2.15;1.08;;;33.60;90.90;;;;;;4165732;28;20049;-65
2021/08/30 05:07:12;;;;;;;1.85;0.90;;;33.80;91.00;;;;;;4161279;28;20362;-66
2021/08/30 05:09:17;;;;;;;1.70;0.85;;;33.80;90.10;;;;;;4151229;28;20049;-66
2021/08/30 05:11:21;;;;;;;1.63;1.00;;;33.80;88.80;;;;;;4172741;28;20519;-65
2021/08/30 05:13:27;;;;;;;1.10;0.90;;;33.60;89.30;;;;;;4158430;28;20741;-66
2021/08/30 05:15:32;;;;;;;1.50;0.93;;;33.50;89.70;;;;;;4169733;28;20064;-66
2021/08/30 05:17:36;;;;;;;0.93;0.82;;;33.60;89.50;;;;;;4164182;28;20534;-66
2021/08/30 05:19:40;;;;;;;1.88;1.05;;;33.60;90.20;;;;;;4164083;28;20440;-65
2021/08/30 05:21:45;;;;;;;2.17;0.90;;;33.60;90.20;;;;;;4165060;28;20061;-65
2021/08/30 05:23:49;;;;;;;1.42;1.10;;;33.70;90.30;;;;;;4165030;28;20432;-64
2021/08/30 05:25:54;;;;;;;1.40;0.98;;;33.60;90.40;;;;;;4111991;28;20269;-65
2021/08/30 05:27:59;;;;;;;2.40;1.00;;;33.80;90.50;;;;;;4171595;28;20044;-65
2021/08/30 05:30:04;;;;;;;1.42;1.05;;;33.90;90.20;;;;;;4164984;28;20477;-65
2021/08/30 05:32:09;;;;;;;1.67;0.88;;;33.90;88.90;;;;;;4165017;28;20037;-65
2021/08/30 05:34:14;;;;;;;1.65;1.00;;;34.00;88.80;;;;;;4169052;28;20073;-65
2021/08/30 05:36:18;;;;;;;1.38;0.90;;;33.90;89.00;;;;;;4163842;28;20050;-64
2021/08/30 05:38:23;;;;;;;0.80;0.70;;;34.10;89.00;;;;;;4164194;28;20076;-64
2021/08/30 05:40:27;;;;;;;1.85;1.00;;;34.20;88.90;;;;;;4172705;28;20541;-64
2021/08/30 05:42:32;;;;;;;1.27;0.90;;;34.10;88.80;;;;;;4167091;28;20073;-64
2021/08/30 05:44:37;;;;;;;1.33;0.70;;;34.20;88.50;;;;;;4164061;28;20594;-64
2021/08/30 05:46:42;;;;;;;3.00;0.90;;;34.20;87.70;;;;;;4164354;28;20037;-64
2021/08/30 05:48:47;;;;;;;1.00;1.00;;;34.30;87.60;;;;;;4163688;28;20358;-65
2021/08/30 05:50:52;;;;;;;1.50;0.60;;;34.40;87.80;;;;;;4166175;28;20496;-64
2021/08/30 05:52:56;;;;;;;1.60;0.80;;;34.50;85.00;;;;;;4169661;28;20045;-65
2021/08/30 05:55:01;;;;;;;1.13;0.80;;;34.40;83.70;;;;;;4170475;28;20072;-64
2021/08/30 05:57:05;;;;;;;1.20;0.88;;;34.40;83.70;;;;;;4167725;28;20470;-65
2021/08/30 05:59:10;;;;;;;0.82;0.80;;;34.50;84.40;;;;;;4166884;28;20587;-65
2021/08/30 06:01:14;;;;;;;0.73;0.70;;;34.40;84.60;;;;;;4161159;28;20044;-64
2021/08/30 06:03:19;;;;;;;1.45;0.90;;;34.30;85.10;;;;;;4168129;28;20041;-65
2021/08/30 06:05:24;;;;;;;0.80;0.80;;;34.40;85.30;;;;;;4164907;28;20606;-65
2021/08/30 06:07:28;;;;;;;1.10;0.77;;;34.50;85.30;;;;;;4166200;28;20037;-64
2021/08/30 06:09:33;;;;;;;1.95;0.95;;;34.50;84.80;;;;;;4161511;28;20136;-65
2021/08/30 06:11:37;;;;;;;1.58;1.13;;;34.60;84.80;;;;;;4160345;28;20085;-65
2021/08/30 06:13:41;;;;;;;1.40;0.80;;;34.60;84.30;;;;;;4162471;28;20160;-65
2021/08/30 06:15:46;;;;;;;1.05;0.73;;;34.50;83.80;;;;;;4161764;28;20156;-64
2021/08/30 06:17:51;;;;;;;1.00;0.90;;;34.40;84.50;;;;;;4168139;28;20041;-65
2021/08/30 06:19:55;;;;;;;1.42;0.73;;;34.50;84.90;;;;;;4158439;28;20054;-65
2021/08/30 06:22:00;;;;;;;2.20;0.80;;;34.70;83.80;;;;;;4168859;28;20049;-64
2021/08/30 06:24:06;;;;;;;0.90;0.70;;;34.70;82.80;;;;;;4160695;28;20124;-64
2021/08/30 06:26:10;;;;;;;1.45;1.10;;;34.80;82.10;;;;;;4160445;28;20042;-65
2021/08/30 06:28:15;;;;;;;2.45;0.80;;;34.90;81.80;;;;;;4164625;28;20435;-65
2021/08/30 06:30:19;;;;;;;1.50;1.10;;;34.90;80.30;;;;;;4168126;28;20049;-61
2021/08/30 06:32:23;;;;;;;1.85;1.02;;;34.90;78.60;;;;;;4166376;28;20041;-62
2021/08/30 06:34:28;;;;;;;1.00;0.80;;;34.60;80.00;;;;;;4154278;28;20045;-62
2021/08/30 06:36:33;;;;;;;1.48;0.95;;;34.80;79.60;;;;;;4166387;28;20091;-62
2021/08/30 06:38:38;;;;;;;2.25;0.95;;;34.80;81.70;;;;;;4176784;28;20555;-62
2021/08/30 06:40:43;;;;;;;2.22;0.80;;;34.90;80.80;;;;;;4162146;28;20076;-62
2021/08/30 06:42:47;;;;;;;1.30;0.80;;;34.60;80.40;;;;;;4161349;28;20052;-62
2021/08/30 06:44:52;;;;;;;1.25;0.90;;;34.70;81.30;;;;;;4175844;28;20051;-62
2021/08/30 06:46:56;;;;;;;1.67;1.40;;;34.80;82.30;;;;;;4175931;28;20373;-62
2021/08/30 06:49:01;;;;;;;3.45;1.83;;;35.00;81.10;;;;;;4152783;28;20061;-62
2021/08/30 06:51:06;;;;;;;3.67;1.73;;;34.90;80.90;;;;;;4178081;28;20049;-62
2021/08/30 06:53:14;;;;;;;1.50;0.90;;;34.80;80.80;;;;;;4170335;28;20107;-62
2021/08/30 06:55:19;;;;;;;1.80;0.90;;;34.70;80.90;;;;;;4163051;28;20069;-62
2021/08/30 06:57:23;;;;;;;2.22;0.90;;;34.70;81.20;;;;;;4164182;28;20093;-61
2021/08/30 06:59:28;;;;;;;1.40;0.90;;;34.70;81.60;;;;;;4174714;28;20056;-61
2021/08/30 07:01:32;;;;;;;1.70;0.98;;;34.70;82.10;;;;;;4174838;28;20059;-62
2021/08/30 07:03:37;;;;;;;1.30;1.00;;;34.80;82.80;;;;;;4169994;28;20044;-62
2021/08/30 07:05:41;;;;;;;5.13;1.20;;;34.70;83.50;;;;;;4161139;28;20053;-62
2021/08/30 07:07:46;;;;;;;1.70;1.00;;;34.70;85.20;;;;;;4161708;28;20484;-62
2021/08/30 07:09:50;;;;;;;2.28;1.30;;;34.70;86.30;;;;;;4163929;28;20045;-62
2021/08/30 07:11:55;;;;;;;3.15;1.23;;;34.60;86.60;;;;;;4164022;28;20053;-62
2021/08/30 07:14:00;;;;;;;1.30;0.95;;;34.40;86.50;;;;;;4170069;28;20045;-62
2021/08/30 07:16:04;;;;;;;4.40;1.00;;;34.30;86.70;;;;;;4171118;28;20046;-63
2021/08/30 07:18:09;;;;;;;2.53;1.02;;;34.20;86.80;;;;;;4156463;28;20492;-63
2021/08/30 07:20:13;;;;;;;4.13;1.00;;;33.80;87.90;;;;;;4162509;28;20040;-63
2021/08/30 07:22:18;;;;;;;2.25;1.20;;;33.60;88.30;;;;;;4163310;28;20052;-63
2021/08/30 07:24:22;;;;;;;6.15;1.40;;;33.00;89.50;;;;;;4163859;28;20049;-63
2021/08/30 07:26:27;;;;;;;5.45;1.60;;;32.00;92.30;;;;;;4162852;28;20052;-63
2021/08/30 07:28:32;;;;;;;4.55;1.85;;;30.60;94.80;;;;;;4165444;28;20060;-62
2021/08/30 07:30:36;;;;;;;3.33;1.60;;;29.50;98.70;;;;;;4166797;28;20076;-63
2021/08/30 07:32:41;;;;;;;2.50;1.30;;;28.90;99.90;;;;;;4163441;28;20033;-63
2021/08/30 07:34:46;;;;;;;4.90;1.58;;;28.70;99.90;;;;;;4163389;28;20126;-62
2021/08/30 07:36:52;;;;;;;4.25;0.90;;;28.80;99.90;;;;;;4164814;28;20048;-62
2021/08/30 07:39:00;;;;;;;2.72;1.13;;;28.60;99.90;;;;;;4163587;28;20064;-63
2021/08/30 07:41:04;;;;;;;1.92;0.77;;;28.80;99.90;;;;;;4162348;28;20078;-63
2021/08/30 07:43:09;;;;;;;3.65;0.90;;;28.80;99.90;;;;;;4168716;28;20503;-62
2021/08/30 07:45:14;;;;;;;3.05;0.90;;;28.70;99.90;;;;;;4163308;28;20068;-62
2021/08/30 07:47:18;;;;;;;2.40;0.68;;;29.00;99.90;;;;;;4164120;28;20507;-62
2021/08/30 07:49:22;;;;;;;2.17;0.90;;;29.00;99.90;;;;;;4162886;28;20045;-62
2021/08/30 07:51:28;;;;;;;2.33;0.68;;;29.50;99.90;;;;;;4162639;28;20160;-62
2021/08/30 07:53:32;;;;;;;2.30;0.80;;;29.90;99.90;;;;;;4155801;28;20061;-62
2021/08/30 07:55:37;;;;;;;2.65;1.10;;;30.10;99.90;;;;;;4154560;28;20140;-62
2021/08/30 07:57:42;;;;;;;4.28;1.00;;;30.10;99.90;;;;;;4162211;28;20049;-62
2021/08/30 07:59:46;;;;;;;2.28;1.08;;;30.00;99.90;;;;;;4169511;28;20139;-63
2021/08/30 08:02:53;;;;;;;3.53;1.30;;;30.20;99.90;;;;;;4172869;27;2050327;-63
2021/08/30 08:04:58;;;;;;;2.20;1.13;;;30.20;99.90;;;;;;4245605;27;20058;-64
2021/08/30 08:07:04;;;;;;;3.17;1.73;;;30.00;99.90;;;;;;4245449;27;20044;-63
2021/08/30 08:09:09;;;;;;;6.13;3.05;;;29.90;99.90;;;;;;4246870;27;20055;-63
2021/08/30 08:11:14;;;;;;;6.20;2.00;;;29.80;99.90;;;;;;4244222;27;20458;-63
2021/08/30 08:13:18;;;;;;;3.15;1.70;;;29.90;99.90;;;;;;4244084;27;20043;-64
2021/08/30 08:15:23;;;;;;;2.78;1.30;;;30.00;99.90;;;;;;4240651;27;20047;-64
2021/08/30 08:17:27;;;;;;;3.28;1.10;;;29.90;99.90;;;;;;4240180;27;20039;-64
2021/08/30 08:19:32;;;;;;;2.55;0.77;;;30.00;99.90;;;;;;4239637;27;20048;-64
2021/08/30 08:21:37;;;;;;;1.73;0.70;;;30.10;99.90;;;;;;4242426;27;20063;-64
2021/08/30 08:23:42;;;;;;;1.30;0.63;;;30.30;99.90;;;;;;4245921;27;20050;-67
2021/08/30 08:25:46;;;;;;;2.75;0.80;;;30.10;99.90;;;;;;4235119;27;20188;-64
2021/08/30 08:27:51;;;;;;;1.83;0.82;;;30.20;99.90;;;;;;4247287;27;20419;-64
2021/08/30 08:29:56;;;;;;;1.67;1.00;;;30.30;99.90;;;;;;4244712;27;20040;-64
2021/08/30 08:32:00;;;;;;;2.95;0.60;;;30.10;99.90;;;;;;4246647;27;20099;-64
2021/08/30 08:34:05;;;;;;;3.88;0.98;;;29.90;99.90;;;;;;4247346;27;20054;-64
2021/08/30 08:36:09;;;;;;;2.05;0.68;;;29.70;99.90;;;;;;4244922;27;20130;-64
2021/08/30 08:38:14;;;;;;;2.13;0.50;;;29.40;99.90;;;;;;4246697;27;20400;-64
2021/08/30 08:40:18;;;;;;;2.03;0.63;;;29.20;99.90;;;;;;4250523;27;20051;-64
2021/08/30 08:42:22;;;;;;;2.25;0.75;;;29.30;99.90;;;;;;4243326;27;20134;-63
2021/08/30 08:44:27;;;;;;;2.92;0.68;;;29.40;99.90;;;;;;4245410;27;20031;-64
2021/08/30 08:46:31;;;;;;;0.75;0.60;;;29.50;99.90;;;;;;4246564;27;20291;-64
2021/08/30 08:48:36;;;;;;;1.67;0.70;;;29.70;99.90;;;;;;4246863;27;20049;-64
2021/08/30 08:50:40;;;;;;;3.85;1.10;;;29.70;99.90;;;;;;4247677;27;20202;-64
2021/08/30 08:52:45;;;;;;;1.58;0.90;;;29.80;99.90;;;;;;4247588;27;20492;-63
2021/08/30 08:54:50;;;;;;;5.45;2.15;;;29.90;99.90;;;;;;4241140;27;20043;-63
2021/08/30 08:56:54;;;;;;;2.28;1.30;;;30.00;99.90;;;;;;4242282;27;20171;-63
2021/08/30 08:58:59;;;;;;;2.70;1.40;;;30.10;99.90;;;;;;4240268;27;20491;-63
2021/08/30 09:01:13;;;;;;;6.85;1.70;;;30.00;99.90;;;;;;4242607;27;20462;-63
2021/08/30 09:03:19;;;;;;;2.28;1.30;;;29.90;99.90;;;;;;4239598;28;20167;-63
2021/08/30 09:05:24;;;;;;;2.28;1.20;;;30.00;99.90;;;;;;4240460;28;20113;-64
2021/08/30 09:07:43;;;;;;;2.60;1.20;;;30.10;99.90;;;;;;4239357;28;20063;-64
2021/08/30 09:09:49;;;;;;;2.45;1.40;;;30.00;99.90;;;;;;4240121;28;20035;-63
2021/08/30 09:11:57;;;;;;;4.57;1.20;;;30.00;99.90;;;;;;4240575;28;20562;-63
2021/08/30 09:14:01;;;;;;;2.05;1.08;;;30.00;99.90;;;;;;4229867;28;20067;-63
2021/08/30 09:16:06;;;;;;;2.60;1.45;;;30.20;99.90;;;;;;4229230;28;20092;-63
2021/08/30 09:18:11;;;;;;;2.10;1.40;;;30.20;99.90;;;;;;4219837;28;20047;-63
2021/08/30 09:20:21;;;;;;;3.80;1.27;;;30.20;99.90;;;;;;4227142;28;20056;-63
2021/08/30 09:22:30;;;;;;;1.98;1.20;;;30.30;99.90;;;;;;4229253;28;20028;-63
2021/08/30 09:24:35;;;;;;;2.45;1.38;;;30.30;99.90;;;;;;4229897;28;20036;-63
2021/08/30 09:26:51;;;;;;;2.50;1.48;;;30.30;99.90;;;;;;4226892;28;20073;-63
2021/08/30 09:29:00;;;;;;;3.38;1.50;;;30.40;99.90;;;;;;4228302;28;20039;-63
2021/08/30 09:31:05;;;;;;;4.13;1.88;;;30.40;99.90;;;;;;4229308;28;20410;-63
2021/08/30 09:33:14;;;;;;;2.17;1.35;;;30.40;99.90;;;;;;4228464;28;20044;-63
2021/08/30 09:35:19;;;;;;;2.78;1.65;;;30.40;99.90;;;;;;4226869;28;20031;-63
2021/08/30 09:37:25;;;;;;;4.45;2.00;;;30.40;99.90;;;;;;4215806;28;20214;-63
2021/08/30 09:39:31;;;;;;;3.75;1.70;;;30.40;99.90;;;;;;4229237;28;20066;-63
2021/08/30 09:41:43;;;;;;;2.45;1.48;;;30.40;99.90;;;;;;4227337;28;20319;-63
2021/08/30 09:43:47;;;;;;;1.65;1.42;;;30.30;99.90;;;;;;4227831;28;20042;-63
2021/08/30 09:45:53;;;;;;;1.88;1.25;;;30.10;99.90;;;;;;4217060;28;20516;-63
2021/08/30 09:48:01;;;;;;;3.75;1.65;;;30.00;99.90;;;;;;4198735;28;20040;-63
2021/08/30 09:50:10;;;;;;;1.85;1.35;;;30.10;99.90;;;;;;4229194;28;20390;-63
2021/08/30 09:52:15;;;;;;;2.42;1.25;;;30.00;99.90;;;;;;4228973;28;20039;-63
2021/08/30 09:54:20;;;;;;;2.03;1.10;;;30.10;99.90;;;;;;4226831;28;20062;-63
2021/08/30 09:56:25;;;;;;;1.52;1.15;;;30.10;99.90;;;;;;4228879;28;20400;-63
2021/08/30 09:58:29;;;;;;;1.70;1.20;;;30.20;99.90;;;;;;4228889;28;20042;-63
2021/08/30 10:00:34;;;;;;;4.57;1.70;;;30.00;99.90;;;;;;4227057;28;20100;-63
2021/08/30 10:02:39;;;;;;;2.50;1.25;;;29.80;99.90;;;;;;4219137;28;20051;-63
2021/08/30 10:04:44;;;;;;;2.33;1.40;;;29.90;99.90;;;;;;4229474;27;20131;-63
2021/08/30 10:06:53;;;;;;;2.40;1.48;;;29.70;99.90;;;;;;4220163;28;20108;-64
2021/08/30 10:08:58;;;;;;;2.05;1.48;;;29.90;99.90;;;;;;4223719;28;20491;-64
2021/08/30 10:11:03;;;;;;;2.13;1.48;;;29.80;99.90;;;;;;4224894;28;20431;-64
2021/08/30 10:13:10;;;;;;;4.07;1.50;;;29.60;99.90;;;;;;4223639;28;20055;-63
2021/08/30 10:15:16;;;;;;;2.08;1.40;;;29.70;99.90;;;;;;4226244;28;20308;-63
2021/08/30 10:17:23;;;;;;;3.13;1.40;;;29.60;99.90;;;;;;4216617;28;20052;-63
2021/08/30 10:19:29;;;;;;;3.53;1.60;;;29.60;99.90;;;;;;4225564;28;20124;-63
2021/08/30 10:21:42;;;;;;;3.08;1.42;;;29.50;99.90;;;;;;4223895;28;20081;-64
2021/08/30 10:23:48;;;;;;;2.90;1.50;;;29.50;99.90;;;;;;4226085;28;20039;-64
2021/08/30 10:26:00;;;;;;;2.35;1.60;;;29.60;99.90;;;;;;4223053;28;20293;-64
2021/08/30 10:28:07;;;;;;;3.35;1.60;;;29.80;99.90;;;;;;4225988;28;20089;-63
2021/08/30 10:30:12;;;;;;;3.72;1.80;;;29.60;99.90;;;;;;4223087;28;20524;-63
2021/08/30 10:32:25;;;;;;;4.07;1.90;;;29.60;99.90;;;;;;4224273;28;20048;-64
2021/08/30 10:34:34;;;;;;;4.35;1.75;;;29.60;99.90;;;;;;4225292;28;20100;-63
2021/08/30 10:36:47;;;;;;;2.28;1.70;;;29.40;99.90;;;;;;4224292;28;20040;-64
2021/08/30 10:39:09;;;;;;;2.50;1.65;;;29.50;99.90;;;;;;4225512;28;20047;-64
2021/08/30 10:41:16;;;;;;;4.10;1.60;;;29.40;99.90;;;;;;4225632;28;20500;-63
2021/08/30 10:43:23;;;;;;;3.28;1.40;;;29.50;99.90;;;;;;4227765;28;20049;-64
2021/08/30 10:45:41;;;;;;;4.40;1.70;;;29.60;99.90;;;;;;4227150;28;20093;-63
2021/08/30 10:47:56;;;;;;;6.35;2.85;;;29.50;99.90;;;;;;4226902;28;20069;-64
2021/08/30 10:50:01;;;;;;;9.13;3.35;;;29.50;99.90;;;;;;4227775;28;20060;-64
2021/08/30 10:52:13;;;;;;;4.30;2.42;;;29.30;99.90;;;;;;4227436;28;20044;-64
2021/08/30 10:54:19;;;;;;;4.07;2.03;;;29.50;99.90;;;;;;4227923;28;20042;-62
2021/08/30 10:56:26;;;;;;;3.97;2.95;;;29.60;99.90;;;;;;4228025;28;20337;-63
2021/08/30 10:58:31;;;;;;;4.80;3.83;;;29.70;99.90;;;;;;4227608;28;20051;-63
2021/08/30 11:00:35;;;;;;;3.42;2.50;;;29.70;99.90;;;;;;4225908;28;20047;-63